Time;durP1;ratioP1;P1;durP2;ratioP2;P2;SDS_P1;SDS_P2;PMS_P1;PMS_P2;Temp;Humidity;BMP_temperature;BMP_pressure;BME280_temperature;BME280_humidity;BME280_pressure;Samples;Min_cycle;Max_cycle;Signal;HPM_P1;HPM_P2
2023/09/19 00:00:12;;;;;;;0.90;0.73;;;24.30;55.20;;;;;;5088985;27;45226;-71
2023/09/19 00:02:39;;;;;;;0.63;0.63;;;24.30;55.30;;;;;;5088460;27;46486;-71
2023/09/19 00:05:09;;;;;;;0.82;0.82;;;24.30;55.30;;;;;;5088741;27;45245;-72
2023/09/19 00:07:36;;;;;;;0.95;0.68;;;24.30;55.30;;;;;;5088771;27;45321;-72
2023/09/19 00:10:04;;;;;;;0.70;0.70;;;24.30;55.30;;;;;;5088863;27;45560;-72
2023/09/19 00:12:32;;;;;;;0.47;0.47;;;24.30;55.30;;;;;;5088394;27;46310;-72
2023/09/19 00:15:00;;;;;;;0.80;0.80;;;24.30;55.30;;;;;;5088513;27;45323;-72
2023/09/19 00:17:30;;;;;;;1.00;0.60;;;24.30;55.30;;;;;;5088576;27;45355;-72
2023/09/19 00:19:57;;;;;;;1.83;0.90;;;24.30;55.30;;;;;;5088483;27;45431;-71
2023/09/19 00:22:26;;;;;;;0.75;0.73;;;24.20;55.30;;;;;;5088267;27;47298;-71
2023/09/19 00:24:53;;;;;;;0.60;0.60;;;24.20;55.30;;;;;;5087246;27;45375;-72
2023/09/19 00:27:20;;;;;;;2.25;0.93;;;24.20;55.20;;;;;;5088517;27;45367;-71
2023/09/19 00:29:47;;;;;;;0.60;0.60;;;24.20;55.30;;;;;;5088579;27;45386;-71
2023/09/19 00:32:13;;;;;;;1.05;0.70;;;24.20;55.40;;;;;;5088139;27;45403;-71
2023/09/19 00:34:42;;;;;;;1.02;0.80;;;24.20;55.20;;;;;;5088050;27;45322;-71
2023/09/19 00:37:11;;;;;;;1.02;0.77;;;24.20;55.30;;;;;;5088319;27;45332;-72
2023/09/19 00:39:40;;;;;;;2.15;1.02;;;24.20;55.30;;;;;;5088527;27;45298;-72
2023/09/19 00:42:08;;;;;;;1.17;0.60;;;24.20;55.40;;;;;;5086985;27;45368;-72
2023/09/19 00:44:37;;;;;;;0.60;0.60;;;24.20;55.20;;;;;;5087366;27;45428;-71
2023/09/19 00:47:04;;;;;;;1.23;0.77;;;24.20;55.30;;;;;;5088117;27;45336;-72
2023/09/19 00:49:33;;;;;;;0.57;0.57;;;24.10;55.20;;;;;;5088251;27;45280;-72
2023/09/19 00:52:00;;;;;;;1.15;1.02;;;24.20;55.30;;;;;;5087750;27;45507;-72
2023/09/19 00:54:28;;;;;;;0.50;0.50;;;24.10;55.30;;;;;;5087905;27;45375;-72
2023/09/19 00:56:56;;;;;;;0.93;0.60;;;24.10;55.20;;;;;;5087983;27;45248;-71
2023/09/19 00:59:23;;;;;;;1.40;0.75;;;24.10;55.20;;;;;;5088152;27;45285;-72
2023/09/19 01:01:53;;;;;;;0.70;0.70;;;24.10;55.20;;;;;;5087455;27;46446;-71
2023/09/19 01:04:20;;;;;;;0.90;0.60;;;24.10;55.20;;;;;;5087722;27;45168;-72
2023/09/19 01:06:52;;;;;;;0.70;0.70;;;24.10;55.10;;;;;;5087850;27;45298;-72
2023/09/19 01:09:19;;;;;;;0.98;0.60;;;24.10;55.10;;;;;;5088021;27;45506;-72
2023/09/19 01:11:48;;;;;;;0.50;0.50;;;24.10;55.00;;;;;;5087382;27;47502;-72
2023/09/19 01:14:21;;;;;;;0.50;0.50;;;24.10;55.10;;;;;;5087350;27;45362;-72
2023/09/19 01:16:51;;;;;;;1.27;0.75;;;24.00;55.10;;;;;;5087654;27;45425;-72
2023/09/19 01:19:44;;;;;;;0.52;0.52;;;24.00;55.10;;;;;;5087877;27;45306;-72
2023/09/19 01:22:14;;;;;;;0.63;0.63;;;24.00;55.10;;;;;;5087194;27;45371;-71
2023/09/19 01:25:08;;;;;;;0.60;0.60;;;24.00;55.10;;;;;;5087238;27;45319;-72
2023/09/19 01:27:49;;;;;;;0.65;0.65;;;24.00;55.10;;;;;;5085509;27;45352;-72
2023/09/19 01:30:19;;;;;;;0.65;0.65;;;24.00;55.10;;;;;;5087567;27;45490;-72
2023/09/19 01:32:46;;;;;;;0.88;0.70;;;24.00;55.10;;;;;;5087075;27;47552;-72
2023/09/19 01:35:13;;;;;;;1.02;0.60;;;24.00;55.10;;;;;;5087362;27;45515;-71
2023/09/19 01:37:43;;;;;;;0.60;0.60;;;24.00;55.10;;;;;;5087099;27;45279;-72
2023/09/19 01:40:16;;;;;;;0.60;0.60;;;23.90;55.10;;;;;;5087359;27;45478;-72
2023/09/19 01:42:45;;;;;;;0.57;0.57;;;24.00;55.20;;;;;;5086299;27;46984;-71
2023/09/19 01:45:14;;;;;;;1.60;0.70;;;24.00;55.10;;;;;;5086968;27;45201;-71
2023/09/19 01:47:47;;;;;;;0.50;0.50;;;23.90;55.00;;;;;;5087321;27;45314;-72
2023/09/19 01:50:18;;;;;;;0.68;0.50;;;23.90;55.00;;;;;;5087233;27;45479;-71
2023/09/19 01:52:48;;;;;;;0.55;0.52;;;23.90;55.00;;;;;;5086605;27;46675;-71
2023/09/19 01:55:17;;;;;;;1.30;0.70;;;23.90;55.00;;;;;;5086715;27;45339;-71
2023/09/19 01:57:51;;;;;;;0.73;0.73;;;23.90;55.00;;;;;;5086817;27;45182;-71
2023/09/19 02:00:18;;;;;;;0.55;0.55;;;23.90;55.00;;;;;;5087107;27;45363;-71
2023/09/19 02:02:48;;;;;;;0.40;0.40;;;23.90;55.00;;;;;;5086539;27;47030;-72
2023/09/19 02:05:16;;;;;;;1.00;0.65;;;23.90;55.00;;;;;;5086697;27;45258;-71
2023/09/19 02:07:43;;;;;;;0.60;0.60;;;23.90;55.00;;;;;;5085956;27;45386;-71
2023/09/19 02:10:12;;;;;;;0.68;0.68;;;23.80;55.00;;;;;;5087006;27;45283;-71
2023/09/19 02:12:38;;;;;;;0.82;0.63;;;23.90;55.00;;;;;;5086382;27;45447;-71
2023/09/19 02:15:07;;;;;;;1.02;0.60;;;23.80;55.00;;;;;;5086539;27;45244;-71
2023/09/19 02:17:34;;;;;;;1.20;0.50;;;23.90;55.60;;;;;;5086777;27;45235;-71
2023/09/19 02:20:09;;;;;;;0.70;0.70;;;23.80;55.00;;;;;;5086797;27;45470;-72
2023/09/19 02:22:36;;;;;;;0.52;0.52;;;23.90;55.00;;;;;;5086112;27;45268;-71
2023/09/19 02:25:05;;;;;;;0.60;0.60;;;23.80;55.00;;;;;;5086364;27;45985;-71
2023/09/19 02:27:32;;;;;;;0.88;0.70;;;23.80;55.00;;;;;;5086590;27;45450;-71
2023/09/19 02:29:58;;;;;;;0.88;0.70;;;23.80;55.00;;;;;;5086966;27;45342;-72
2023/09/19 02:32:25;;;;;;;0.52;0.52;;;23.80;55.00;;;;;;5086077;27;46962;-71
2023/09/19 02:34:52;;;;;;;0.60;0.60;;;23.80;55.00;;;;;;5086278;27;45288;-71
2023/09/19 02:37:21;;;;;;;1.08;0.80;;;23.80;55.00;;;;;;5086571;27;45288;-71
2023/09/19 02:39:48;;;;;;;0.50;0.50;;;23.80;55.00;;;;;;5086722;27;45376;-71
2023/09/19 02:42:14;;;;;;;0.50;0.50;;;23.80;55.10;;;;;;5085795;27;46679;-71
2023/09/19 02:44:41;;;;;;;0.50;0.50;;;23.70;55.00;;;;;;5086297;27;45331;-70
2023/09/19 02:47:09;;;;;;;0.60;0.60;;;23.70;54.90;;;;;;5086371;27;45318;-71
2023/09/19 02:49:36;;;;;;;0.55;0.52;;;23.70;54.90;;;;;;5089379;27;45363;-71
2023/09/19 02:52:04;;;;;;;0.50;0.50;;;23.70;54.90;;;;;;5089789;27;48553;-71
2023/09/19 02:54:32;;;;;;;0.60;0.60;;;23.70;54.90;;;;;;5089081;27;45310;-71
2023/09/19 02:56:59;;;;;;;0.52;0.50;;;23.70;55.50;;;;;;5089267;27;45214;-71
2023/09/19 02:59:28;;;;;;;1.70;0.60;;;23.70;54.90;;;;;;5090044;27;45307;-71
2023/09/19 03:01:55;;;;;;;1.85;0.50;;;23.70;54.90;;;;;;5089644;27;46465;-71
2023/09/19 03:04:22;;;;;;;1.08;0.70;;;23.70;54.90;;;;;;5089639;27;45287;-71
2023/09/19 03:06:51;;;;;;;0.60;0.60;;;23.70;54.90;;;;;;5089739;27;45309;-71
2023/09/19 03:09:19;;;;;;;1.42;0.50;;;23.70;54.90;;;;;;5090166;27;45354;-71
2023/09/19 03:11:47;;;;;;;1.92;0.50;;;23.70;54.90;;;;;;5089217;27;48973;-71
2023/09/19 03:14:15;;;;;;;0.60;0.60;;;23.70;55.50;;;;;;5089341;27;45337;-71
2023/09/19 03:16:44;;;;;;;0.57;0.57;;;23.70;54.90;;;;;;5089802;27;45356;-71
2023/09/19 03:19:12;;;;;;;0.63;0.57;;;23.70;54.90;;;;;;5089560;27;45565;-71
2023/09/19 03:21:38;;;;;;;0.75;0.60;;;23.70;54.90;;;;;;5089073;27;45462;-71
2023/09/19 03:24:06;;;;;;;0.65;0.50;;;23.70;54.90;;;;;;5089382;27;45344;-71
2023/09/19 03:26:33;;;;;;;0.50;0.50;;;23.70;54.90;;;;;;5089663;27;45348;-70
2023/09/19 03:29:06;;;;;;;0.85;0.65;;;23.70;55.50;;;;;;5089465;27;45406;-70
2023/09/19 03:31:33;;;;;;;1.38;0.57;;;23.60;54.80;;;;;;5089389;27;47933;-71
2023/09/19 03:33:59;;;;;;;0.70;0.60;;;23.60;54.80;;;;;;5089040;27;45320;-71
2023/09/19 03:36:27;;;;;;;0.68;0.65;;;23.60;54.80;;;;;;5089271;27;45352;-70
2023/09/19 03:38:54;;;;;;;0.60;0.60;;;23.60;54.80;;;;;;5089639;27;45196;-71
2023/09/19 03:41:21;;;;;;;0.40;0.40;;;23.60;55.40;;;;;;5088821;27;45448;-70
2023/09/19 03:43:49;;;;;;;1.30;0.32;;;23.60;54.90;;;;;;5087782;27;45333;-70
2023/09/19 03:46:17;;;;;;;0.98;0.52;;;23.60;54.80;;;;;;5088731;27;45370;-70
2023/09/19 03:48:44;;;;;;;0.55;0.52;;;23.60;54.80;;;;;;5089131;27;45249;-70
2023/09/19 03:51:11;;;;;;;1.25;0.70;;;23.60;54.90;;;;;;5088814;27;46402;-70
2023/09/19 03:53:38;;;;;;;1.25;0.50;;;23.50;54.80;;;;;;5088587;27;45425;-70
2023/09/19 03:56:05;;;;;;;1.27;0.60;;;23.60;54.80;;;;;;5088821;27;45320;-70
2023/09/19 03:58:31;;;;;;;1.20;0.50;;;23.50;54.80;;;;;;5089157;27;45558;-70
2023/09/19 04:00:59;;;;;;;0.80;0.50;;;23.50;54.80;;;;;;5086978;27;45331;-70
2023/09/19 04:03:34;;;;;;;0.93;0.65;;;23.60;54.80;;;;;;5088540;27;45379;-70
2023/09/19 04:06:02;;;;;;;0.70;0.70;;;23.50;54.80;;;;;;5088732;27;45235;-70
2023/09/19 04:08:29;;;;;;;0.70;0.70;;;23.60;54.80;;;;;;5088943;27;45271;-70
2023/09/19 04:10:56;;;;;;;0.50;0.50;;;23.50;54.80;;;;;;5088429;27;46744;-70
2023/09/19 04:13:23;;;;;;;0.60;0.60;;;23.50;55.30;;;;;;5088383;27;45261;-70
2023/09/19 04:15:50;;;;;;;1.42;0.52;;;23.50;54.70;;;;;;5088564;27;45295;-70
2023/09/19 04:18:17;;;;;;;0.50;0.50;;;23.50;54.80;;;;;;5088660;27;45470;-70
2023/09/19 04:20:50;;;;;;;0.68;0.50;;;23.50;54.80;;;;;;5088342;27;46562;-70
2023/09/19 04:23:19;;;;;;;0.40;0.40;;;23.50;54.80;;;;;;5087910;27;45346;-70
2023/09/19 04:25:46;;;;;;;0.40;0.40;;;23.50;54.80;;;;;;5088343;27;45318;-70
2023/09/19 04:28:13;;;;;;;0.50;0.50;;;23.50;54.80;;;;;;5088506;27;45384;-70
2023/09/19 04:30:40;;;;;;;0.50;0.50;;;23.50;54.80;;;;;;5088101;27;45597;-70
2023/09/19 04:33:07;;;;;;;0.60;0.60;;;23.40;54.70;;;;;;5087409;27;45328;-70
2023/09/19 04:35:34;;;;;;;0.57;0.50;;;23.50;54.80;;;;;;5088184;27;45411;-70
2023/09/19 04:38:03;;;;;;;0.50;0.50;;;23.50;54.80;;;;;;5088238;27;45187;-70
2023/09/19 04:40:30;;;;;;;0.95;0.60;;;23.50;54.80;;;;;;5087927;28;46724;-70
2023/09/19 04:42:57;;;;;;;0.43;0.43;;;23.50;54.80;;;;;;5087437;27;45275;-70
2023/09/19 04:45:24;;;;;;;0.55;0.55;;;23.50;54.80;;;;;;5087843;27;45431;-70
2023/09/19 04:47:50;;;;;;;0.43;0.43;;;23.40;54.70;;;;;;5088340;27;45401;-70
2023/09/19 04:50:17;;;;;;;0.93;0.55;;;23.40;54.70;;;;;;5088082;27;45318;-70
2023/09/19 04:52:44;;;;;;;1.58;0.60;;;23.40;54.70;;;;;;5087936;27;45347;-70
2023/09/19 04:55:16;;;;;;;0.55;0.50;;;23.40;54.70;;;;;;5088026;27;45275;-70
2023/09/19 04:57:43;;;;;;;0.80;0.40;;;23.40;54.70;;;;;;5088220;27;45297;-70
2023/09/19 05:00:12;;;;;;;0.57;0.57;;;23.40;54.70;;;;;;5087859;27;45194;-71
2023/09/19 05:02:40;;;;;;;0.50;0.50;;;23.40;54.70;;;;;;5087675;27;45359;-70
2023/09/19 05:05:08;;;;;;;0.50;0.50;;;23.40;54.70;;;;;;5087911;27;45315;-70
2023/09/19 05:07:35;;;;;;;1.23;0.50;;;23.40;54.70;;;;;;5087765;27;45203;-70
2023/09/19 05:10:05;;;;;;;0.60;0.60;;;23.40;54.70;;;;;;5087414;27;45301;-70
2023/09/19 05:12:33;;;;;;;0.40;0.40;;;23.40;54.70;;;;;;5086944;27;45323;-70
2023/09/19 05:15:01;;;;;;;0.68;0.57;;;23.40;54.70;;;;;;5087613;27;45387;-70
2023/09/19 05:17:28;;;;;;;0.52;0.52;;;23.40;54.80;;;;;;5087962;27;45380;-70
2023/09/19 05:19:54;;;;;;;0.50;0.50;;;23.30;54.60;;;;;;5087403;27;45392;-70
2023/09/19 05:22:21;;;;;;;0.60;0.40;;;23.40;54.70;;;;;;5086587;27;45405;-70
2023/09/19 05:24:48;;;;;;;0.60;0.50;;;23.40;54.70;;;;;;5087734;27;45281;-70
2023/09/19 05:27:16;;;;;;;0.47;0.40;;;23.30;54.70;;;;;;5087735;27;45365;-70
2023/09/19 05:29:44;;;;;;;0.52;0.47;;;23.40;54.70;;;;;;5087269;27;45454;-70
2023/09/19 05:32:11;;;;;;;0.45;0.45;;;23.30;54.70;;;;;;5087332;27;45458;-70
2023/09/19 05:34:39;;;;;;;0.73;0.57;;;23.30;54.70;;;;;;5087375;27;45357;-70
2023/09/19 05:37:06;;;;;;;0.65;0.40;;;23.30;54.60;;;;;;5087572;27;45229;-70
2023/09/19 05:39:33;;;;;;;0.52;0.50;;;23.30;54.70;;;;;;5086965;27;45524;-70
2023/09/19 05:42:01;;;;;;;0.63;0.60;;;23.30;54.70;;;;;;5086817;27;45603;-70
2023/09/19 05:44:27;;;;;;;1.35;0.73;;;23.40;54.70;;;;;;5087118;27;45303;-70
2023/09/19 05:46:57;;;;;;;0.52;0.52;;;23.30;54.70;;;;;;5087491;27;45314;-70
2023/09/19 05:49:25;;;;;;;0.50;0.50;;;23.30;54.60;;;;;;5087125;27;46490;-70
2023/09/19 05:51:55;;;;;;;0.50;0.50;;;23.30;54.70;;;;;;5087311;27;45185;-70
2023/09/19 05:54:22;;;;;;;0.60;0.52;;;23.30;54.60;;;;;;5087016;27;45271;-70
2023/09/19 05:56:52;;;;;;;1.13;0.47;;;23.30;54.70;;;;;;5087149;27;45377;-70
2023/09/19 05:59:19;;;;;;;0.43;0.40;;;23.30;54.60;;;;;;5086881;27;47285;-71
2023/09/19 06:01:46;;;;;;;0.75;0.55;;;23.30;54.60;;;;;;5086598;27;45330;-70
2023/09/19 06:04:15;;;;;;;0.57;0.57;;;23.30;54.60;;;;;;5086718;27;45291;-70
2023/09/19 06:06:42;;;;;;;1.83;0.47;;;23.30;54.60;;;;;;5087148;27;45380;-70
2023/09/19 06:09:09;;;;;;;0.65;0.63;;;23.30;54.60;;;;;;5086056;27;45278;-70
2023/09/19 06:11:36;;;;;;;1.13;0.77;;;23.30;54.60;;;;;;5086757;27;45304;-70
2023/09/19 06:14:03;;;;;;;0.52;0.52;;;23.30;54.60;;;;;;5086818;27;45332;-70
2023/09/19 06:16:30;;;;;;;2.13;0.57;;;23.30;54.60;;;;;;5086844;27;45363;-70
2023/09/19 06:18:56;;;;;;;0.50;0.50;;;23.30;54.60;;;;;;5086671;27;46719;-69
2023/09/19 06:21:25;;;;;;;1.60;0.65;;;23.30;54.60;;;;;;5086721;27;45327;-70
2023/09/19 06:23:52;;;;;;;1.45;0.43;;;23.30;54.60;;;;;;5085372;27;45445;-70
2023/09/19 06:26:19;;;;;;;0.80;0.50;;;23.30;54.60;;;;;;5086893;27;45587;-70
2023/09/19 06:28:46;;;;;;;0.77;0.52;;;23.30;54.60;;;;;;5086533;27;46902;-70
2023/09/19 06:31:13;;;;;;;0.90;0.70;;;23.30;54.60;;;;;;5086292;27;45245;-70
2023/09/19 06:33:40;;;;;;;0.40;0.40;;;23.30;54.60;;;;;;5086467;27;45355;-70
2023/09/19 06:36:07;;;;;;;1.02;0.50;;;23.30;54.60;;;;;;5086545;27;45413;-70
2023/09/19 06:38:37;;;;;;;0.50;0.50;;;23.30;54.60;;;;;;5086185;28;46515;-70
2023/09/19 06:41:05;;;;;;;1.33;0.63;;;23.30;54.60;;;;;;5086163;27;45241;-70
2023/09/19 06:43:33;;;;;;;1.20;0.68;;;23.30;54.50;;;;;;5085559;27;45305;-70
2023/09/19 06:46:00;;;;;;;0.98;0.60;;;23.30;54.60;;;;;;5086491;27;45553;-70
2023/09/19 06:48:29;;;;;;;0.93;0.50;;;23.30;54.60;;;;;;5085827;27;46698;-69
2023/09/19 06:50:56;;;;;;;1.70;0.60;;;23.30;54.50;;;;;;5085837;27;45193;-70
2023/09/19 06:53:23;;;;;;;0.68;0.68;;;23.30;54.50;;;;;;5085571;27;45322;-70
2023/09/19 06:55:51;;;;;;;0.75;0.50;;;23.30;54.50;;;;;;5085917;27;45359;-69
2023/09/19 06:58:19;;;;;;;0.70;0.70;;;23.30;54.60;;;;;;5085818;27;46576;-70
2023/09/19 07:00:46;;;;;;;0.57;0.57;;;23.30;54.50;;;;;;5086173;27;45188;-70
2023/09/19 07:03:16;;;;;;;0.40;0.40;;;23.30;54.50;;;;;;5085864;27;45446;-70
2023/09/19 07:05:42;;;;;;;1.20;0.40;;;23.30;54.50;;;;;;5086279;27;45328;-70
2023/09/19 07:08:12;;;;;;;0.40;0.40;;;23.30;54.40;;;;;;5085941;27;45840;-69
2023/09/19 07:10:40;;;;;;;1.48;0.68;;;23.30;54.50;;;;;;5086105;27;45242;-70
2023/09/19 07:13:10;;;;;;;1.10;0.85;;;23.30;54.50;;;;;;5086070;27;45371;-70
2023/09/19 07:15:39;;;;;;;0.85;0.60;;;23.30;54.50;;;;;;5086095;27;45189;-70
2023/09/19 07:18:12;;;;;;;0.60;0.60;;;23.30;54.40;;;;;;5085641;27;45994;-70
2023/09/19 07:20:38;;;;;;;0.75;0.75;;;23.30;54.40;;;;;;5084392;28;45453;-70
2023/09/19 07:23:06;;;;;;;0.43;0.43;;;23.30;54.40;;;;;;5085717;27;45327;-70
2023/09/19 07:25:32;;;;;;;0.98;0.60;;;23.30;54.30;;;;;;5085866;27;45379;-70
2023/09/19 07:28:00;;;;;;;0.98;0.65;;;23.30;54.20;;;;;;5085468;27;45847;-70
2023/09/19 07:30:28;;;;;;;0.60;0.60;;;23.30;54.20;;;;;;5085492;27;45248;-70
2023/09/19 07:32:55;;;;;;;2.28;0.50;;;23.40;54.30;;;;;;5085179;27;45417;-70
2023/09/19 07:35:22;;;;;;;1.70;0.70;;;23.40;54.20;;;;;;5088168;27;45462;-70
2023/09/19 07:37:51;;;;;;;1.85;1.00;;;23.40;54.20;;;;;;5088703;27;45517;-69
2023/09/19 07:40:18;;;;;;;0.73;0.60;;;23.40;54.10;;;;;;5088880;27;45265;-70
2023/09/19 07:42:46;;;;;;;0.80;0.50;;;23.40;54.10;;;;;;5088132;27;45541;-69
2023/09/19 07:45:16;;;;;;;0.73;0.50;;;23.40;54.10;;;;;;5088915;27;45253;-70
2023/09/19 07:47:46;;;;;;;2.40;1.10;;;23.40;54.20;;;;;;5088484;27;45313;-70
2023/09/19 07:50:13;;;;;;;0.88;0.60;;;23.40;54.30;;;;;;5088872;27;45323;-69
2023/09/19 07:52:40;;;;;;;1.30;0.60;;;23.40;54.20;;;;;;5088776;27;45131;-70
2023/09/19 07:55:10;;;;;;;1.00;0.70;;;23.40;54.00;;;;;;5089087;27;44801;-69
2023/09/19 07:57:37;;;;;;;1.65;0.60;;;23.50;54.10;;;;;;5088556;27;46979;-70
2023/09/19 08:00:06;;;;;;;0.75;0.70;;;23.50;54.10;;;;;;5088648;27;45330;-70
2023/09/19 08:02:37;;;;;;;2.55;0.77;;;23.50;54.10;;;;;;5088524;27;45395;-70
2023/09/19 08:05:09;;;;;;;0.70;0.60;;;23.50;54.10;;;;;;5088512;27;45257;-70
2023/09/19 08:07:37;;;;;;;3.00;0.93;;;23.50;54.10;;;;;;5088290;27;46177;-70
2023/09/19 08:10:04;;;;;;;1.05;0.43;;;23.50;54.00;;;;;;5088417;27;45091;-70
2023/09/19 08:12:32;;;;;;;0.65;0.65;;;23.50;53.90;;;;;;5088300;27;45307;-69
2023/09/19 08:14:59;;;;;;;0.70;0.70;;;23.50;54.00;;;;;;5088700;27;45442;-69
2023/09/19 08:17:26;;;;;;;3.47;0.70;;;23.50;54.00;;;;;;5088118;27;46659;-68
2023/09/19 08:19:53;;;;;;;0.82;0.52;;;23.50;54.00;;;;;;5087965;27;45374;-68
2023/09/19 08:22:23;;;;;;;0.65;0.55;;;23.50;53.90;;;;;;5088133;27;45261;-68
2023/09/19 08:24:50;;;;;;;1.70;0.68;;;23.50;54.00;;;;;;5088295;27;45347;-69
2023/09/19 08:27:18;;;;;;;0.60;0.43;;;23.50;54.00;;;;;;5087812;27;45331;-69
2023/09/19 08:29:46;;;;;;;1.40;0.80;;;23.50;54.00;;;;;;5088143;28;45296;-68
2023/09/19 08:32:13;;;;;;;1.52;0.63;;;23.60;54.10;;;;;;5088234;27;45302;-69
2023/09/19 08:34:39;;;;;;;0.65;0.65;;;23.60;54.00;;;;;;5087001;27;45376;-69
2023/09/19 08:37:07;;;;;;;4.13;0.82;;;23.60;53.90;;;;;;5087338;27;45677;-70
2023/09/19 08:39:36;;;;;;;0.90;0.75;;;23.60;53.90;;;;;;5087849;27;45280;-69
2023/09/19 08:42:04;;;;;;;2.72;1.02;;;23.60;54.00;;;;;;5087491;27;45268;-70
2023/09/19 08:44:31;;;;;;;1.35;0.73;;;23.60;54.00;;;;;;5087848;27;45565;-70
2023/09/19 08:47:03;;;;;;;0.73;0.50;;;23.60;54.00;;;;;;5086591;27;45374;-70
2023/09/19 08:49:44;;;;;;;3.85;0.80;;;23.60;54.00;;;;;;5087406;27;45230;-69
2023/09/19 08:52:14;;;;;;;0.73;0.73;;;23.70;53.90;;;;;;5087564;27;45362;-70
2023/09/19 08:54:43;;;;;;;0.82;0.75;;;23.70;53.90;;;;;;5087645;27;45366;-70
2023/09/19 08:57:11;;;;;;;0.85;0.85;;;23.70;53.90;;;;;;5087211;27;46950;-70
2023/09/19 08:59:39;;;;;;;3.08;0.95;;;23.70;53.80;;;;;;5087363;28;45288;-70
2023/09/19 09:02:11;;;;;;;3.17;0.70;;;23.70;53.80;;;;;;5087006;28;45414;-69
2023/09/19 09:04:39;;;;;;;0.60;0.60;;;23.70;53.70;;;;;;5087347;27;45454;-70
2023/09/19 09:07:06;;;;;;;1.55;0.57;;;23.80;53.60;;;;;;5087204;27;45482;-70
2023/09/19 09:09:33;;;;;;;0.63;0.63;;;23.80;53.70;;;;;;5082739;27;45565;-71
2023/09/19 09:12:02;;;;;;;1.30;0.90;;;23.80;53.70;;;;;;5085608;27;45169;-69
2023/09/19 09:14:29;;;;;;;1.45;0.80;;;23.80;53.70;;;;;;5087133;27;45307;-71
2023/09/19 09:16:58;;;;;;;1.05;0.70;;;23.80;53.70;;;;;;5086754;27;46598;-70
2023/09/19 09:19:25;;;;;;;4.20;0.70;;;23.80;53.60;;;;;;5086295;28;45342;-69
2023/09/19 09:21:52;;;;;;;2.83;0.73;;;23.80;53.60;;;;;;5086654;27;45281;-69
2023/09/19 09:24:29;;;;;;;3.53;0.60;;;23.80;53.70;;;;;;5081753;27;45419;-69
2023/09/19 09:26:57;;;;;;;1.17;0.85;;;23.90;53.90;;;;;;5081165;27;47519;-70
2023/09/19 09:29:42;;;;;;;1.92;0.95;;;23.90;54.00;;;;;;5076936;28;45473;-70
2023/09/19 09:32:19;;;;;;;0.65;0.60;;;23.90;54.10;;;;;;5077037;27;45506;-70
2023/09/19 09:34:46;;;;;;;4.00;0.93;;;23.90;54.10;;;;;;5085947;27;45617;-70
2023/09/19 09:37:17;;;;;;;1.33;0.70;;;24.00;54.30;;;;;;5094751;27;46834;-70
2023/09/19 09:39:51;;;;;;;1.50;0.80;;;24.00;54.30;;;;;;5085493;27;45301;-70
2023/09/19 09:42:32;;;;;;;1.13;0.70;;;24.00;54.30;;;;;;5085493;27;45352;-69
2023/09/19 09:45:15;;;;;;;0.82;0.82;;;24.10;54.30;;;;;;5090593;27;45425;-68
2023/09/19 09:47:54;;;;;;;2.92;0.90;;;24.10;54.20;;;;;;5085558;27;46408;-68
2023/09/19 09:50:39;;;;;;;1.02;0.82;;;24.10;54.00;;;;;;5081502;27;45694;-69
2023/09/19 09:53:21;;;;;;;1.50;0.77;;;24.20;54.10;;;;;;5075941;28;45541;-69
2023/09/19 09:56:05;;;;;;;0.90;0.80;;;24.20;53.90;;;;;;5082243;28;45506;-68
2023/09/19 09:58:33;;;;;;;1.42;0.70;;;24.20;53.90;;;;;;5084863;27;46655;-68
2023/09/19 10:01:08;;;;;;;1.30;0.80;;;24.20;53.90;;;;;;5088334;27;45378;-68
2023/09/19 10:03:39;;;;;;;1.20;0.90;;;24.20;54.00;;;;;;5078652;28;45439;-67
2023/09/19 10:06:24;;;;;;;1.40;0.65;;;24.20;53.90;;;;;;5085491;27;45439;-70
2023/09/19 10:09:11;;;;;;;0.70;0.70;;;24.30;54.10;;;;;;5084984;27;45691;-68
2023/09/19 10:11:44;;;;;;;2.25;0.80;;;24.30;54.10;;;;;;5085040;27;45277;-68
2023/09/19 10:14:11;;;;;;;1.55;0.60;;;24.30;54.10;;;;;;5084926;27;45339;-68
2023/09/19 10:16:41;;;;;;;1.00;0.90;;;24.40;54.00;;;;;;5077491;27;45500;-68
2023/09/19 10:19:08;;;;;;;1.30;0.63;;;24.40;53.90;;;;;;5080587;27;45520;-68
2023/09/19 10:21:36;;;;;;;3.03;0.70;;;24.40;53.90;;;;;;5078385;27;45494;-68
2023/09/19 10:24:04;;;;;;;2.08;0.77;;;24.40;53.90;;;;;;5078838;28;45450;-67
2023/09/19 10:26:31;;;;;;;1.35;0.90;;;24.50;54.50;;;;;;5074320;27;45475;-68
2023/09/19 10:29:00;;;;;;;1.52;1.00;;;24.50;54.40;;;;;;5084862;27;45560;-67
2023/09/19 10:31:27;;;;;;;4.10;0.88;;;24.50;53.80;;;;;;5084902;27;45447;-67
2023/09/19 10:33:56;;;;;;;0.82;0.60;;;24.60;53.80;;;;;;5081150;27;45466;-68
2023/09/19 10:36:22;;;;;;;1.70;0.80;;;24.50;53.80;;;;;;5083697;28;45857;-68
2023/09/19 10:38:49;;;;;;;1.20;0.77;;;24.60;53.80;;;;;;5085148;27;46349;-67
2023/09/19 10:41:17;;;;;;;5.53;0.95;;;24.60;53.80;;;;;;5085126;27;45256;-68
2023/09/19 10:43:44;;;;;;;1.60;0.88;;;24.70;53.90;;;;;;5084525;27;45317;-69
2023/09/19 10:46:12;;;;;;;0.82;0.82;;;24.70;53.70;;;;;;5085378;27;45411;-68
2023/09/19 10:48:40;;;;;;;2.13;0.90;;;24.70;53.70;;;;;;5085529;27;45975;-68
2023/09/19 10:51:09;;;;;;;2.20;0.80;;;24.80;53.60;;;;;;5085205;27;45264;-68
2023/09/19 10:53:43;;;;;;;2.00;0.68;;;24.90;53.40;;;;;;5085270;27;45344;-69
2023/09/19 10:56:17;;;;;;;0.98;0.80;;;25.00;53.30;;;;;;5085500;27;45390;-68
2023/09/19 10:58:44;;;;;;;0.90;0.80;;;25.10;53.00;;;;;;5068650;28;45341;-69
2023/09/19 11:01:14;;;;;;;0.82;0.82;;;25.20;52.90;;;;;;5084259;27;45413;-69
2023/09/19 11:03:43;;;;;;;0.60;0.60;;;25.30;52.80;;;;;;5084525;27;45400;-68
2023/09/19 11:06:16;;;;;;;1.27;0.68;;;25.30;52.60;;;;;;5084995;27;45422;-68
2023/09/19 11:09:21;;;;;;;2.40;0.85;;;25.40;52.50;;;;;;5064667;28;46390;-68
2023/09/19 11:11:52;;;;;;;2.58;0.70;;;25.50;52.40;;;;;;5068590;28;45234;-68
2023/09/19 11:14:41;;;;;;;3.25;0.98;;;25.60;52.30;;;;;;5068695;28;45447;-69
2023/09/19 11:17:46;;;;;;;3.70;0.82;;;25.60;52.10;;;;;;5065498;28;45242;-69
2023/09/19 11:23:26;;;;;;;2.33;0.80;;;25.80;52.00;;;;;;5066049;28;45391;-69
2023/09/19 11:25:54;;;;;;;0.82;0.77;;;25.80;52.00;;;;;;5068592;28;45266;-69
2023/09/19 11:28:39;;;;;;;0.70;0.70;;;25.90;52.00;;;;;;5068886;28;45399;-69
2023/09/19 11:31:55;;;;;;;0.77;0.70;;;25.90;52.10;;;;;;5068409;28;46572;-69
2023/09/19 11:34:48;;;;;;;2.55;1.02;;;26.00;51.90;;;;;;5068617;28;45317;-69
2023/09/19 11:38:15;;;;;;;1.08;0.90;;;25.90;51.90;;;;;;5068559;28;45324;-68
2023/09/19 11:40:55;;;;;;;1.25;0.70;;;25.90;52.10;;;;;;5068684;28;45296;-68
2023/09/19 11:43:33;;;;;;;2.97;0.75;;;25.90;52.10;;;;;;5067862;28;45357;-68
2023/09/19 11:46:06;;;;;;;0.93;0.70;;;25.90;52.10;;;;;;5068149;28;45261;-68
2023/09/19 11:48:34;;;;;;;1.40;1.00;;;26.00;52.00;;;;;;5068537;28;45316;-68
2023/09/19 11:51:07;;;;;;;1.63;0.80;;;26.10;51.80;;;;;;5068440;28;45632;-68
2023/09/19 11:53:35;;;;;;;1.10;0.80;;;26.00;52.00;;;;;;5067812;28;47066;-69
2023/09/19 11:56:10;;;;;;;1.05;0.70;;;26.00;52.00;;;;;;5067964;28;45471;-69
2023/09/19 11:58:37;;;;;;;1.75;0.70;;;26.20;51.70;;;;;;5068262;28;45441;-68
2023/09/19 12:01:12;;;;;;;1.95;0.80;;;26.30;51.50;;;;;;5068023;28;45392;-68
2023/09/19 12:03:41;;;;;;;1.17;1.08;;;26.50;51.30;;;;;;5067372;28;46384;-68
2023/09/19 12:06:13;;;;;;;1.27;0.77;;;26.50;51.20;;;;;;5067519;28;45375;-68
2023/09/19 12:08:42;;;;;;;0.70;0.70;;;26.50;51.20;;;;;;5068045;28;45336;-68
2023/09/19 12:11:13;;;;;;;0.60;0.60;;;26.40;51.40;;;;;;5068338;28;45249;-69
2023/09/19 12:13:44;;;;;;;1.05;0.80;;;26.30;51.50;;;;;;5067810;28;46643;-69
2023/09/19 12:16:15;;;;;;;1.08;1.00;;;26.50;51.40;;;;;;5067643;28;45342;-67
2023/09/19 12:18:42;;;;;;;0.77;0.77;;;26.60;51.10;;;;;;5068063;28;45321;-67
2023/09/19 12:21:12;;;;;;;2.25;0.93;;;26.70;50.70;;;;;;5066716;28;45308;-67
2023/09/19 12:23:41;;;;;;;1.05;0.90;;;26.80;51.00;;;;;;5085776;28;46680;-68
2023/09/19 12:26:12;;;;;;;0.82;0.73;;;26.90;50.30;;;;;;5087890;27;45398;-68
2023/09/19 12:28:43;;;;;;;1.30;1.08;;;27.00;49.90;;;;;;5088092;27;45234;-68
2023/09/19 12:31:11;;;;;;;1.98;0.70;;;27.00;50.50;;;;;;5088095;27;45346;-68
2023/09/19 12:33:39;;;;;;;0.90;0.63;;;27.10;49.60;;;;;;5087549;27;46661;-67
2023/09/19 12:36:25;;;;;;;2.20;0.73;;;27.20;49.90;;;;;;5087614;27;45359;-68
2023/09/19 12:38:53;;;;;;;1.02;0.80;;;27.20;49.50;;;;;;5087934;27;45304;-68
2023/09/19 12:41:20;;;;;;;2.60;1.00;;;27.30;49.80;;;;;;5087848;27;45489;-68
2023/09/19 12:43:49;;;;;;;1.75;0.70;;;27.40;49.50;;;;;;5087355;27;46494;-68
2023/09/19 12:46:19;;;;;;;1.77;0.90;;;27.40;49.40;;;;;;5087523;27;45477;-67
2023/09/19 12:48:47;;;;;;;1.75;0.93;;;27.40;49.70;;;;;;5087510;27;45313;-68
2023/09/19 12:51:16;;;;;;;3.65;0.85;;;27.40;49.60;;;;;;5087891;27;45489;-67
2023/09/19 12:53:45;;;;;;;1.27;0.82;;;27.50;49.60;;;;;;5086844;27;46615;-68
2023/09/19 12:56:13;;;;;;;0.85;0.70;;;27.60;49.50;;;;;;5087216;27;45529;-68
2023/09/19 12:58:53;;;;;;;2.28;0.90;;;27.60;49.30;;;;;;5087674;27;45281;-68
2023/09/19 13:01:22;;;;;;;0.90;0.90;;;27.70;50.00;;;;;;5087663;27;45259;-68
2023/09/19 13:04:17;;;;;;;2.15;1.00;;;27.80;49.80;;;;;;5086174;27;45407;-69